sensor_id;sensor_type;location;lat;lon;timestamp;temperature;humidity
516;DHT22;244;48.508;9.052;2022-07-29T00:00:08;20.70;28.40
516;DHT22;244;48.508;9.052;2022-07-29T00:02:36;20.70;28.30
516;DHT22;244;48.508;9.052;2022-07-29T00:05:05;20.60;28.30
516;DHT22;244;48.508;9.052;2022-07-29T00:07:32;20.60;28.40
516;DHT22;244;48.508;9.052;2022-07-29T00:09:59;20.60;28.50
516;DHT22;244;48.508;9.052;2022-07-29T00:12:26;20.60;28.60
516;DHT22;244;48.508;9.052;2022-07-29T00:14:54;20.50;28.60
516;DHT22;244;48.508;9.052;2022-07-29T00:17:21;20.50;28.70
516;DHT22;244;48.508;9.052;2022-07-29T00:19:47;20.50;28.80
516;DHT22;244;48.508;9.052;2022-07-29T00:22:16;20.50;28.90
516;DHT22;244;48.508;9.052;2022-07-29T00:24:42;20.50;28.80
516;DHT22;244;48.508;9.052;2022-07-29T00:27:09;20.50;28.80
516;DHT22;244;48.508;9.052;2022-07-29T00:29:36;20.50;28.80
516;DHT22;244;48.508;9.052;2022-07-29T00:32:03;20.40;28.70
516;DHT22;244;48.508;9.052;2022-07-29T00:34:30;20.40;28.80
516;DHT22;244;48.508;9.052;2022-07-29T00:37:16;20.40;28.80
516;DHT22;244;48.508;9.052;2022-07-29T00:39:43;20.40;28.90
516;DHT22;244;48.508;9.052;2022-07-29T00:42:10;20.40;28.70
516;DHT22;244;48.508;9.052;2022-07-29T00:44:38;20.30;28.70
516;DHT22;244;48.508;9.052;2022-07-29T00:47:05;20.30;28.80
516;DHT22;244;48.508;9.052;2022-07-29T00:49:32;20.30;28.70
516;DHT22;244;48.508;9.052;2022-07-29T00:52:00;20.30;28.60
516;DHT22;244;48.508;9.052;2022-07-29T00:54:29;20.30;28.50
516;DHT22;244;48.508;9.052;2022-07-29T00:56:58;20.30;28.50
516;DHT22;244;48.508;9.052;2022-07-29T00:59:25;20.20;28.50
516;DHT22;244;48.508;9.052;2022-07-29T01:01:52;20.20;28.50
516;DHT22;244;48.508;9.052;2022-07-29T01:04:19;20.20;28.60
516;DHT22;244;48.508;9.052;2022-07-29T01:06:47;20.10;28.70
516;DHT22;244;48.508;9.052;2022-07-29T01:09:14;20.10;28.80
516;DHT22;244;48.508;9.052;2022-07-29T01:11:44;20.10;29.00
516;DHT22;244;48.508;9.052;2022-07-29T01:14:14;20.10;28.90
516;DHT22;244;48.508;9.052;2022-07-29T01:16:48;20.10;28.80
516;DHT22;244;48.508;9.052;2022-07-29T01:19:30;20.00;28.80
516;DHT22;244;48.508;9.052;2022-07-29T01:22:14;20.00;28.70
516;DHT22;244;48.508;9.052;2022-07-29T01:27:57;20.00;29.00
516;DHT22;244;48.508;9.052;2022-07-29T01:30:29;20.00;28.90
516;DHT22;244;48.508;9.052;2022-07-29T01:33:00;20.00;28.80
516;DHT22;244;48.508;9.052;2022-07-29T01:35:32;19.90;28.70
516;DHT22;244;48.508;9.052;2022-07-29T01:38:05;19.90;28.60
516;DHT22;244;48.508;9.052;2022-07-29T01:40:42;19.90;28.70
516;DHT22;244;48.508;9.052;2022-07-29T01:43:12;19.80;28.70
516;DHT22;244;48.508;9.052;2022-07-29T01:45:45;19.80;28.70
516;DHT22;244;48.508;9.052;2022-07-29T01:48:16;19.80;28.80
516;DHT22;244;48.508;9.052;2022-07-29T01:50:48;19.80;28.80
516;DHT22;244;48.508;9.052;2022-07-29T01:53:23;19.80;28.80
516;DHT22;244;48.508;9.052;2022-07-29T01:55:53;19.80;28.90
516;DHT22;244;48.508;9.052;2022-07-29T01:58:23;19.80;28.80
516;DHT22;244;48.508;9.052;2022-07-29T02:00:53;19.70;28.70
516;DHT22;244;48.508;9.052;2022-07-29T02:03:21;19.70;28.70
516;DHT22;244;48.508;9.052;2022-07-29T02:05:50;19.70;28.70
516;DHT22;244;48.508;9.052;2022-07-29T02:08:19;19.70;28.80
516;DHT22;244;48.508;9.052;2022-07-29T02:10:47;19.70;28.90
516;DHT22;244;48.508;9.052;2022-07-29T02:13:16;19.60;29.00
516;DHT22;244;48.508;9.052;2022-07-29T02:15:44;19.60;29.00
516;DHT22;244;48.508;9.052;2022-07-29T02:18:17;19.60;29.00
516;DHT22;244;48.508;9.052;2022-07-29T02:20:46;19.60;28.80
516;DHT22;244;48.508;9.052;2022-07-29T02:23:18;19.60;28.70
516;DHT22;244;48.508;9.052;2022-07-29T02:25:46;19.60;29.10
516;DHT22;244;48.508;9.052;2022-07-29T02:28:15;19.60;28.60
516;DHT22;244;48.508;9.052;2022-07-29T02:30:43;19.60;28.60
516;DHT22;244;48.508;9.052;2022-07-29T02:33:14;19.50;28.60
516;DHT22;244;48.508;9.052;2022-07-29T02:35:43;19.50;28.70
516;DHT22;244;48.508;9.052;2022-07-29T02:38:14;19.50;28.70
516;DHT22;244;48.508;9.052;2022-07-29T02:41:00;19.50;28.70
516;DHT22;244;48.508;9.052;2022-07-29T02:43:28;19.50;28.80
516;DHT22;244;48.508;9.052;2022-07-29T02:45:56;19.50;28.70
516;DHT22;244;48.508;9.052;2022-07-29T02:48:32;19.40;28.60
516;DHT22;244;48.508;9.052;2022-07-29T02:51:05;19.40;28.60
516;DHT22;244;48.508;9.052;2022-07-29T02:53:34;19.40;28.40
516;DHT22;244;48.508;9.052;2022-07-29T02:56:08;19.40;28.90
516;DHT22;244;48.508;9.052;2022-07-29T02:58:40;19.30;28.40
516;DHT22;244;48.508;9.052;2022-07-29T03:01:13;19.30;28.30
516;DHT22;244;48.508;9.052;2022-07-29T03:03:45;19.30;28.30
516;DHT22;244;48.508;9.052;2022-07-29T03:06:18;19.30;28.30
516;DHT22;244;48.508;9.052;2022-07-29T03:08:46;19.20;28.30
516;DHT22;244;48.508;9.052;2022-07-29T03:11:14;19.20;28.30
516;DHT22;244;48.508;9.052;2022-07-29T03:13:45;19.20;28.30
516;DHT22;244;48.508;9.052;2022-07-29T03:16:12;19.20;28.20
516;DHT22;244;48.508;9.052;2022-07-29T03:18:39;19.20;28.00
516;DHT22;244;48.508;9.052;2022-07-29T03:21:10;19.10;28.00
516;DHT22;244;48.508;9.052;2022-07-29T03:23:37;19.10;28.00
516;DHT22;244;48.508;9.052;2022-07-29T03:26:09;19.10;28.00
516;DHT22;244;48.508;9.052;2022-07-29T03:28:36;19.10;28.10
516;DHT22;244;48.508;9.052;2022-07-29T03:31:05;19.00;28.10
516;DHT22;244;48.508;9.052;2022-07-29T03:33:32;19.10;28.30
516;DHT22;244;48.508;9.052;2022-07-29T03:36:01;19.00;28.30
516;DHT22;244;48.508;9.052;2022-07-29T03:38:30;19.00;28.20
516;DHT22;244;48.508;9.052;2022-07-29T03:41:03;19.00;28.20
516;DHT22;244;48.508;9.052;2022-07-29T03:43:35;19.00;28.30
516;DHT22;244;48.508;9.052;2022-07-29T03:46:05;19.00;28.30
516;DHT22;244;48.508;9.052;2022-07-29T03:48:34;19.00;28.20
516;DHT22;244;48.508;9.052;2022-07-29T03:51:02;19.00;28.20
516;DHT22;244;48.508;9.052;2022-07-29T03:53:31;18.90;28.30
516;DHT22;244;48.508;9.052;2022-07-29T03:56:02;18.90;28.30
516;DHT22;244;48.508;9.052;2022-07-29T03:58:30;18.90;28.30
516;DHT22;244;48.508;9.052;2022-07-29T04:00:58;18.90;28.20
516;DHT22;244;48.508;9.052;2022-07-29T04:03:25;18.90;28.20
516;DHT22;244;48.508;9.052;2022-07-29T04:06:00;18.90;28.20
516;DHT22;244;48.508;9.052;2022-07-29T04:08:27;18.90;28.20
516;DHT22;244;48.508;9.052;2022-07-29T04:10:55;18.90;28.10
516;DHT22;244;48.508;9.052;2022-07-29T04:13:22;18.90;28.10
516;DHT22;244;48.508;9.052;2022-07-29T04:15:49;18.90;28.00
516;DHT22;244;48.508;9.052;2022-07-29T04:18:16;18.90;27.90
516;DHT22;244;48.508;9.052;2022-07-29T04:20:43;18.90;27.80
516;DHT22;244;48.508;9.052;2022-07-29T04:23:10;18.90;28.50
516;DHT22;244;48.508;9.052;2022-07-29T04:25:37;18.90;27.90
516;DHT22;244;48.508;9.052;2022-07-29T04:28:06;18.90;27.80
516;DHT22;244;48.508;9.052;2022-07-29T04:30:35;18.90;27.90
516;DHT22;244;48.508;9.052;2022-07-29T04:33:05;18.90;28.00
516;DHT22;244;48.508;9.052;2022-07-29T04:35:35;18.90;28.00
516;DHT22;244;48.508;9.052;2022-07-29T04:38:02;19.00;28.20
516;DHT22;244;48.508;9.052;2022-07-29T04:40:30;19.00;28.40
516;DHT22;244;48.508;9.052;2022-07-29T04:42:59;19.10;28.50
516;DHT22;244;48.508;9.052;2022-07-29T04:45:27;19.10;29.20
516;DHT22;244;48.508;9.052;2022-07-29T04:47:54;19.20;28.80
516;DHT22;244;48.508;9.052;2022-07-29T04:50:21;19.20;28.80
516;DHT22;244;48.508;9.052;2022-07-29T04:52:48;19.30;28.90
516;DHT22;244;48.508;9.052;2022-07-29T04:55:15;19.40;28.90
516;DHT22;244;48.508;9.052;2022-07-29T04:57:42;19.40;28.80
516;DHT22;244;48.508;9.052;2022-07-29T05:00:09;19.50;28.80
516;DHT22;244;48.508;9.052;2022-07-29T05:02:38;19.50;28.70
516;DHT22;244;48.508;9.052;2022-07-29T05:05:05;19.60;28.80
516;DHT22;244;48.508;9.052;2022-07-29T05:07:32;19.70;28.90
516;DHT22;244;48.508;9.052;2022-07-29T05:09:59;19.70;28.90
516;DHT22;244;48.508;9.052;2022-07-29T05:12:26;19.80;29.00
516;DHT22;244;48.508;9.052;2022-07-29T05:14:53;19.90;29.20
516;DHT22;244;48.508;9.052;2022-07-29T05:17:20;20.00;29.40
516;DHT22;244;48.508;9.052;2022-07-29T05:19:48;20.20;29.40
516;DHT22;244;48.508;9.052;2022-07-29T05:22:17;20.30;29.30
516;DHT22;244;48.508;9.052;2022-07-29T05:24:44;20.40;29.10
516;DHT22;244;48.508;9.052;2022-07-29T05:27:11;20.50;29.10
516;DHT22;244;48.508;9.052;2022-07-29T05:29:37;20.60;29.10
516;DHT22;244;48.508;9.052;2022-07-29T05:32:13;20.70;29.10
516;DHT22;244;48.508;9.052;2022-07-29T05:34:48;20.80;29.10
516;DHT22;244;48.508;9.052;2022-07-29T05:37:15;20.90;29.10
516;DHT22;244;48.508;9.052;2022-07-29T05:39:43;20.90;29.00
516;DHT22;244;48.508;9.052;2022-07-29T05:42:10;21.00;29.00
516;DHT22;244;48.508;9.052;2022-07-29T05:44:39;21.10;29.00
516;DHT22;244;48.508;9.052;2022-07-29T05:47:06;21.20;28.90
516;DHT22;244;48.508;9.052;2022-07-29T05:49:33;21.20;28.80
516;DHT22;244;48.508;9.052;2022-07-29T05:52:01;21.20;28.60
516;DHT22;244;48.508;9.052;2022-07-29T05:54:28;21.20;28.50
516;DHT22;244;48.508;9.052;2022-07-29T05:56:55;21.20;28.70
516;DHT22;244;48.508;9.052;2022-07-29T05:59:21;21.10;28.80
516;DHT22;244;48.508;9.052;2022-07-29T06:01:48;21.10;28.70
516;DHT22;244;48.508;9.052;2022-07-29T06:04:15;21.10;28.70
516;DHT22;244;48.508;9.052;2022-07-29T06:06:42;21.10;28.80
516;DHT22;244;48.508;9.052;2022-07-29T06:09:10;21.10;28.70
516;DHT22;244;48.508;9.052;2022-07-29T06:11:37;21.10;28.70
516;DHT22;244;48.508;9.052;2022-07-29T06:14:04;21.20;28.90
516;DHT22;244;48.508;9.052;2022-07-29T06:16:31;21.20;28.80
516;DHT22;244;48.508;9.052;2022-07-29T06:18:58;21.20;28.70
516;DHT22;244;48.508;9.052;2022-07-29T06:21:25;21.30;28.80
516;DHT22;244;48.508;9.052;2022-07-29T06:23:52;21.40;28.90
516;DHT22;244;48.508;9.052;2022-07-29T06:26:20;21.50;29.20
516;DHT22;244;48.508;9.052;2022-07-29T06:28:47;21.70;29.50
516;DHT22;244;48.508;9.052;2022-07-29T06:31:14;21.90;30.30
516;DHT22;244;48.508;9.052;2022-07-29T06:33:41;22.10;29.80
516;DHT22;244;48.508;9.052;2022-07-29T06:36:08;22.20;29.80
516;DHT22;244;48.508;9.052;2022-07-29T06:38:35;22.30;29.70
516;DHT22;244;48.508;9.052;2022-07-29T06:41:03;22.50;29.50
516;DHT22;244;48.508;9.052;2022-07-29T06:43:34;22.70;29.40
516;DHT22;244;48.508;9.052;2022-07-29T06:46:04;22.90;29.50
516;DHT22;244;48.508;9.052;2022-07-29T06:48:32;23.10;29.40
516;DHT22;244;48.508;9.052;2022-07-29T06:50:59;23.10;29.10
516;DHT22;244;48.508;9.052;2022-07-29T06:53:27;23.30;28.60
516;DHT22;244;48.508;9.052;2022-07-29T06:55:54;23.30;28.30
516;DHT22;244;48.508;9.052;2022-07-29T06:58:21;23.40;28.00
516;DHT22;244;48.508;9.052;2022-07-29T07:00:49;23.50;28.00
516;DHT22;244;48.508;9.052;2022-07-29T07:03:17;23.50;27.80
516;DHT22;244;48.508;9.052;2022-07-29T07:05:45;23.50;28.30
516;DHT22;244;48.508;9.052;2022-07-29T07:08:12;23.60;27.60
516;DHT22;244;48.508;9.052;2022-07-29T07:10:39;23.70;28.10
516;DHT22;244;48.508;9.052;2022-07-29T07:13:06;23.70;27.60
516;DHT22;244;48.508;9.052;2022-07-29T07:15:33;23.70;27.10
516;DHT22;244;48.508;9.052;2022-07-29T07:18:01;23.70;26.90
516;DHT22;244;48.508;9.052;2022-07-29T07:20:28;23.70;26.80
516;DHT22;244;48.508;9.052;2022-07-29T07:22:55;23.70;26.90
516;DHT22;244;48.508;9.052;2022-07-29T07:25:22;23.70;26.90
516;DHT22;244;48.508;9.052;2022-07-29T07:27:49;23.80;26.90
516;DHT22;244;48.508;9.052;2022-07-29T07:30:16;23.80;26.80
516;DHT22;244;48.508;9.052;2022-07-29T07:32:43;23.90;26.80
516;DHT22;244;48.508;9.052;2022-07-29T07:35:11;23.90;26.60
516;DHT22;244;48.508;9.052;2022-07-29T07:37:38;23.90;26.60
516;DHT22;244;48.508;9.052;2022-07-29T07:40:08;24.00;26.60
516;DHT22;244;48.508;9.052;2022-07-29T07:42:35;24.10;26.60
516;DHT22;244;48.508;9.052;2022-07-29T07:45:03;24.10;26.50
516;DHT22;244;48.508;9.052;2022-07-29T07:47:30;24.10;26.40
516;DHT22;244;48.508;9.052;2022-07-29T07:49:57;24.10;26.30
516;DHT22;244;48.508;9.052;2022-07-29T07:52:25;24.10;26.30
516;DHT22;244;48.508;9.052;2022-07-29T07:54:52;24.10;26.10
516;DHT22;244;48.508;9.052;2022-07-29T07:57:19;24.20;26.20
516;DHT22;244;48.508;9.052;2022-07-29T07:59:46;24.40;26.10
516;DHT22;244;48.508;9.052;2022-07-29T08:02:13;24.60;26.10
516;DHT22;244;48.508;9.052;2022-07-29T08:04:40;24.70;26.10
516;DHT22;244;48.508;9.052;2022-07-29T08:07:07;24.80;25.90
516;DHT22;244;48.508;9.052;2022-07-29T08:09:36;25.00;25.90
516;DHT22;244;48.508;9.052;2022-07-29T08:12:03;25.00;25.60
516;DHT22;244;48.508;9.052;2022-07-29T08:14:31;25.10;25.50
516;DHT22;244;48.508;9.052;2022-07-29T08:17:01;25.20;26.20
516;DHT22;244;48.508;9.052;2022-07-29T08:19:31;25.30;25.60
516;DHT22;244;48.508;9.052;2022-07-29T08:21:57;25.30;25.40
516;DHT22;244;48.508;9.052;2022-07-29T08:24:24;25.20;25.10
516;DHT22;244;48.508;9.052;2022-07-29T08:27:13;25.20;25.10
516;DHT22;244;48.508;9.052;2022-07-29T08:29:40;25.30;25.20
516;DHT22;244;48.508;9.052;2022-07-29T08:32:07;25.30;25.20
516;DHT22;244;48.508;9.052;2022-07-29T08:34:34;25.30;25.10
516;DHT22;244;48.508;9.052;2022-07-29T08:37:01;25.30;25.20
516;DHT22;244;48.508;9.052;2022-07-29T08:39:28;25.30;25.20
516;DHT22;244;48.508;9.052;2022-07-29T08:41:55;25.30;25.20
516;DHT22;244;48.508;9.052;2022-07-29T08:44:23;25.40;25.20
516;DHT22;244;48.508;9.052;2022-07-29T08:46:51;25.40;25.10
516;DHT22;244;48.508;9.052;2022-07-29T08:49:18;25.40;24.70
516;DHT22;244;48.508;9.052;2022-07-29T08:51:45;25.40;24.80
516;DHT22;244;48.508;9.052;2022-07-29T08:54:16;25.50;24.70
516;DHT22;244;48.508;9.052;2022-07-29T08:56:44;25.50;24.50
516;DHT22;244;48.508;9.052;2022-07-29T08:59:12;25.60;24.60
516;DHT22;244;48.508;9.052;2022-07-29T09:01:43;25.70;24.60
516;DHT22;244;48.508;9.052;2022-07-29T09:04:11;25.80;24.40
516;DHT22;244;48.508;9.052;2022-07-29T09:06:44;26.00;24.20
516;DHT22;244;48.508;9.052;2022-07-29T09:09:11;26.10;23.80
516;DHT22;244;48.508;9.052;2022-07-29T09:11:39;26.20;23.60
516;DHT22;244;48.508;9.052;2022-07-29T09:14:06;26.40;23.20
516;DHT22;244;48.508;9.052;2022-07-29T09:16:49;26.60;22.90
516;DHT22;244;48.508;9.052;2022-07-29T09:19:24;26.90;22.90
516;DHT22;244;48.508;9.052;2022-07-29T09:21:52;27.20;22.40
516;DHT22;244;48.508;9.052;2022-07-29T09:24:27;27.40;22.20
516;DHT22;244;48.508;9.052;2022-07-29T09:26:54;27.70;21.70
516;DHT22;244;48.508;9.052;2022-07-29T09:29:23;28.00;21.40
516;DHT22;244;48.508;9.052;2022-07-29T09:31:52;28.30;20.80
516;DHT22;244;48.508;9.052;2022-07-29T09:34:24;28.60;20.40
516;DHT22;244;48.508;9.052;2022-07-29T09:36:52;28.90;19.90
516;DHT22;244;48.508;9.052;2022-07-29T09:39:28;29.20;19.50
516;DHT22;244;48.508;9.052;2022-07-29T09:41:58;29.30;18.30
516;DHT22;244;48.508;9.052;2022-07-29T09:44:26;29.50;19.00
516;DHT22;244;48.508;9.052;2022-07-29T09:46:59;29.60;17.90
516;DHT22;244;48.508;9.052;2022-07-29T09:49:31;29.50;17.30
516;DHT22;244;48.508;9.052;2022-07-29T09:52:07;29.50;17.20
516;DHT22;244;48.508;9.052;2022-07-29T09:54:34;29.50;16.70
516;DHT22;244;48.508;9.052;2022-07-29T09:57:04;29.40;16.30
516;DHT22;244;48.508;9.052;2022-07-29T09:59:32;29.30;15.70
516;DHT22;244;48.508;9.052;2022-07-29T10:02:00;29.20;15.10
516;DHT22;244;48.508;9.052;2022-07-29T10:04:38;29.10;14.10
516;DHT22;244;48.508;9.052;2022-07-29T10:07:05;28.90;13.40
516;DHT22;244;48.508;9.052;2022-07-29T10:09:33;28.90;13.30
516;DHT22;244;48.508;9.052;2022-07-29T10:12:05;28.90;13.10
516;DHT22;244;48.508;9.052;2022-07-29T10:14:32;28.80;11.80
516;DHT22;244;48.508;9.052;2022-07-29T10:17:02;28.90;11.80
516;DHT22;244;48.508;9.052;2022-07-29T10:19:29;29.10;11.70
516;DHT22;244;48.508;9.052;2022-07-29T10:21:58;29.20;11.00
516;DHT22;244;48.508;9.052;2022-07-29T10:24:26;29.30;10.70
516;DHT22;244;48.508;9.052;2022-07-29T10:26:54;29.30;10.10
516;DHT22;244;48.508;9.052;2022-07-29T10:29:21;29.20;9.50
516;DHT22;244;48.508;9.052;2022-07-29T10:31:52;29.20;9.00
516;DHT22;244;48.508;9.052;2022-07-29T10:34:30;29.10;9.60
516;DHT22;244;48.508;9.052;2022-07-29T10:37:07;29.20;8.20
516;DHT22;244;48.508;9.052;2022-07-29T10:39:53;29.40;7.50
516;DHT22;244;48.508;9.052;2022-07-29T10:42:25;29.50;6.80
516;DHT22;244;48.508;9.052;2022-07-29T10:44:54;29.70;6.60
516;DHT22;244;48.508;9.052;2022-07-29T10:47:23;30.00;6.20
516;DHT22;244;48.508;9.052;2022-07-29T10:50:04;30.50;5.60
516;DHT22;244;48.508;9.052;2022-07-29T10:52:54;31.00;4.80
516;DHT22;244;48.508;9.052;2022-07-29T10:55:35;31.50;3.90
516;DHT22;244;48.508;9.052;2022-07-29T10:58:16;31.80;2.90
516;DHT22;244;48.508;9.052;2022-07-29T11:00:44;32.20;2.30
516;DHT22;244;48.508;9.052;2022-07-29T11:03:42;32.40;1.60
516;DHT22;244;48.508;9.052;2022-07-29T11:06:11;32.60;1.20
516;DHT22;244;48.508;9.052;2022-07-29T11:08:38;32.80;1.00
516;DHT22;244;48.508;9.052;2022-07-29T11:11:35;32.90;1.00
516;DHT22;244;48.508;9.052;2022-07-29T11:14:07;33.00;1.00
516;DHT22;244;48.508;9.052;2022-07-29T11:17:03;33.00;1.00
516;DHT22;244;48.508;9.052;2022-07-29T11:19:30;32.80;1.00
516;DHT22;244;48.508;9.052;2022-07-29T11:21:58;32.40;1.00
516;DHT22;244;48.508;9.052;2022-07-29T11:24:27;31.90;1.00
516;DHT22;244;48.508;9.052;2022-07-29T11:27:10;31.40;1.00
516;DHT22;244;48.508;9.052;2022-07-29T11:29:40;31.00;1.00
516;DHT22;244;48.508;9.052;2022-07-29T11:32:12;30.70;1.00
516;DHT22;244;48.508;9.052;2022-07-29T11:34:40;30.30;1.00
516;DHT22;244;48.508;9.052;2022-07-29T11:37:23;30.10;1.00
516;DHT22;244;48.508;9.052;2022-07-29T11:40:12;30.00;1.00
516;DHT22;244;48.508;9.052;2022-07-29T11:42:46;29.90;1.00
516;DHT22;244;48.508;9.052;2022-07-29T11:45:18;29.90;1.00
516;DHT22;244;48.508;9.052;2022-07-29T11:47:51;29.90;1.00
516;DHT22;244;48.508;9.052;2022-07-29T11:50:37;29.90;1.00
516;DHT22;244;48.508;9.052;2022-07-29T11:53:12;29.90;1.00
516;DHT22;244;48.508;9.052;2022-07-29T11:55:40;30.10;1.00
516;DHT22;244;48.508;9.052;2022-07-29T11:58:07;30.30;1.00
516;DHT22;244;48.508;9.052;2022-07-29T12:00:36;30.30;1.00
516;DHT22;244;48.508;9.052;2022-07-29T12:03:05;30.40;1.00
516;DHT22;244;48.508;9.052;2022-07-29T12:05:34;30.50;1.00
516;DHT22;244;48.508;9.052;2022-07-29T12:08:14;30.50;1.00
516;DHT22;244;48.508;9.052;2022-07-29T12:10:42;30.60;1.00
516;DHT22;244;48.508;9.052;2022-07-29T12:13:09;30.60;1.00
516;DHT22;244;48.508;9.052;2022-07-29T12:15:37;30.70;1.00
516;DHT22;244;48.508;9.052;2022-07-29T12:18:11;30.60;1.00
516;DHT22;244;48.508;9.052;2022-07-29T12:20:38;30.60;1.00
516;DHT22;244;48.508;9.052;2022-07-29T12:23:06;30.50;1.00
516;DHT22;244;48.508;9.052;2022-07-29T12:25:35;30.40;1.00
516;DHT22;244;48.508;9.052;2022-07-29T12:28:04;30.40;1.00
516;DHT22;244;48.508;9.052;2022-07-29T12:30:50;30.60;1.00
516;DHT22;244;48.508;9.052;2022-07-29T12:33:19;30.90;1.00
516;DHT22;244;48.508;9.052;2022-07-29T12:35:49;31.10;1.00
516;DHT22;244;48.508;9.052;2022-07-29T12:38:16;31.30;1.00
516;DHT22;244;48.508;9.052;2022-07-29T12:40:46;31.50;1.00
516;DHT22;244;48.508;9.052;2022-07-29T12:43:14;31.80;1.00
516;DHT22;244;48.508;9.052;2022-07-29T12:45:43;32.10;1.00
516;DHT22;244;48.508;9.052;2022-07-29T12:48:11;32.20;1.00
516;DHT22;244;48.508;9.052;2022-07-29T12:50:52;32.50;1.00
516;DHT22;244;48.508;9.052;2022-07-29T12:53:19;32.70;1.00
516;DHT22;244;48.508;9.052;2022-07-29T12:55:50;32.80;1.00
516;DHT22;244;48.508;9.052;2022-07-29T12:58:32;32.90;1.00
516;DHT22;244;48.508;9.052;2022-07-29T13:01:10;32.90;1.00
516;DHT22;244;48.508;9.052;2022-07-29T13:03:45;32.70;1.00
516;DHT22;244;48.508;9.052;2022-07-29T13:06:29;32.30;1.00
516;DHT22;244;48.508;9.052;2022-07-29T13:09:01;31.90;1.00
516;DHT22;244;48.508;9.052;2022-07-29T13:11:33;31.60;1.00
516;DHT22;244;48.508;9.052;2022-07-29T13:14:00;31.20;1.00
516;DHT22;244;48.508;9.052;2022-07-29T13:16:27;30.80;1.00
516;DHT22;244;48.508;9.052;2022-07-29T13:19:08;30.30;1.00
516;DHT22;244;48.508;9.052;2022-07-29T13:21:35;29.70;1.00
516;DHT22;244;48.508;9.052;2022-07-29T13:24:03;29.30;1.00
516;DHT22;244;48.508;9.052;2022-07-29T13:26:32;29.00;1.00
516;DHT22;244;48.508;9.052;2022-07-29T13:28:59;28.70;1.00
516;DHT22;244;48.508;9.052;2022-07-29T13:31:26;28.50;1.00
516;DHT22;244;48.508;9.052;2022-07-29T13:33:53;28.30;1.00
516;DHT22;244;48.508;9.052;2022-07-29T13:36:20;28.20;1.00
516;DHT22;244;48.508;9.052;2022-07-29T13:38:47;28.10;1.00
516;DHT22;244;48.508;9.052;2022-07-29T13:41:14;28.10;1.00
516;DHT22;244;48.508;9.052;2022-07-29T13:43:42;28.10;1.00
516;DHT22;244;48.508;9.052;2022-07-29T13:46:09;28.10;1.00
516;DHT22;244;48.508;9.052;2022-07-29T13:48:35;28.10;1.00
516;DHT22;244;48.508;9.052;2022-07-29T13:51:02;28.20;1.00
516;DHT22;244;48.508;9.052;2022-07-29T13:53:29;28.30;1.00
516;DHT22;244;48.508;9.052;2022-07-29T13:55:56;28.30;1.00
516;DHT22;244;48.508;9.052;2022-07-29T13:58:23;28.30;1.00
516;DHT22;244;48.508;9.052;2022-07-29T14:00:51;28.30;1.00
516;DHT22;244;48.508;9.052;2022-07-29T14:03:18;28.20;1.00
516;DHT22;244;48.508;9.052;2022-07-29T14:05:45;28.20;1.00
516;DHT22;244;48.508;9.052;2022-07-29T14:08:12;28.20;1.00
516;DHT22;244;48.508;9.052;2022-07-29T14:10:39;28.30;1.00
516;DHT22;244;48.508;9.052;2022-07-29T14:13:06;28.50;1.00
516;DHT22;244;48.508;9.052;2022-07-29T14:15:32;28.70;1.00
516;DHT22;244;48.508;9.052;2022-07-29T14:18:01;29.00;1.00
516;DHT22;244;48.508;9.052;2022-07-29T14:20:28;29.30;1.00
516;DHT22;244;48.508;9.052;2022-07-29T14:22:56;29.50;1.00
516;DHT22;244;48.508;9.052;2022-07-29T14:25:23;29.60;1.00
516;DHT22;244;48.508;9.052;2022-07-29T14:27:50;29.60;1.00
516;DHT22;244;48.508;9.052;2022-07-29T14:30:18;29.60;1.00
516;DHT22;244;48.508;9.052;2022-07-29T14:32:45;29.60;1.00
516;DHT22;244;48.508;9.052;2022-07-29T14:35:14;29.60;1.00
516;DHT22;244;48.508;9.052;2022-07-29T14:37:41;29.60;1.00
516;DHT22;244;48.508;9.052;2022-07-29T14:40:08;29.60;1.00
516;DHT22;244;48.508;9.052;2022-07-29T14:42:36;29.70;1.00
516;DHT22;244;48.508;9.052;2022-07-29T14:45:04;29.70;1.00
516;DHT22;244;48.508;9.052;2022-07-29T14:47:31;29.80;1.00
516;DHT22;244;48.508;9.052;2022-07-29T14:49:58;29.80;1.00
516;DHT22;244;48.508;9.052;2022-07-29T14:52:26;29.90;1.00
516;DHT22;244;48.508;9.052;2022-07-29T14:54:53;30.00;1.00
516;DHT22;244;48.508;9.052;2022-07-29T14:57:20;30.00;1.00
516;DHT22;244;48.508;9.052;2022-07-29T14:59:47;30.10;1.00
516;DHT22;244;48.508;9.052;2022-07-29T15:02:13;30.20;1.00
516;DHT22;244;48.508;9.052;2022-07-29T15:04:40;30.30;1.00
516;DHT22;244;48.508;9.052;2022-07-29T15:07:07;30.40;1.00
516;DHT22;244;48.508;9.052;2022-07-29T15:09:36;30.50;1.00
516;DHT22;244;48.508;9.052;2022-07-29T15:12:03;30.60;1.00
516;DHT22;244;48.508;9.052;2022-07-29T15:14:30;30.70;1.00
516;DHT22;244;48.508;9.052;2022-07-29T15:16:58;30.70;1.00
516;DHT22;244;48.508;9.052;2022-07-29T15:19:25;30.70;1.00
516;DHT22;244;48.508;9.052;2022-07-29T15:21:52;30.60;1.00
516;DHT22;244;48.508;9.052;2022-07-29T15:24:19;30.50;1.00
516;DHT22;244;48.508;9.052;2022-07-29T15:26:47;30.40;1.00
516;DHT22;244;48.508;9.052;2022-07-29T15:29:15;30.40;1.00
516;DHT22;244;48.508;9.052;2022-07-29T15:31:42;30.40;1.00
516;DHT22;244;48.508;9.052;2022-07-29T15:34:09;30.40;1.00
516;DHT22;244;48.508;9.052;2022-07-29T15:36:36;30.40;1.00
516;DHT22;244;48.508;9.052;2022-07-29T15:39:03;30.30;1.00
516;DHT22;244;48.508;9.052;2022-07-29T15:41:30;30.30;1.00
516;DHT22;244;48.508;9.052;2022-07-29T15:43:58;30.20;1.00
516;DHT22;244;48.508;9.052;2022-07-29T15:46:25;30.10;1.00
516;DHT22;244;48.508;9.052;2022-07-29T15:49:09;30.00;1.00
516;DHT22;244;48.508;9.052;2022-07-29T15:51:36;30.00;1.00
516;DHT22;244;48.508;9.052;2022-07-29T15:54:03;30.00;1.00
516;DHT22;244;48.508;9.052;2022-07-29T15:56:30;30.10;1.00
516;DHT22;244;48.508;9.052;2022-07-29T15:58:59;30.20;1.00
516;DHT22;244;48.508;9.052;2022-07-29T16:01:26;30.40;1.00
516;DHT22;244;48.508;9.052;2022-07-29T16:03:53;30.60;1.00
516;DHT22;244;48.508;9.052;2022-07-29T16:06:20;30.70;1.00
516;DHT22;244;48.508;9.052;2022-07-29T16:08:47;30.80;1.00
516;DHT22;244;48.508;9.052;2022-07-29T16:11:14;30.90;1.00
516;DHT22;244;48.508;9.052;2022-07-29T16:13:41;31.10;1.00
516;DHT22;244;48.508;9.052;2022-07-29T16:16:09;31.30;1.00
516;DHT22;244;48.508;9.052;2022-07-29T16:18:36;31.50;1.00
516;DHT22;244;48.508;9.052;2022-07-29T16:21:02;31.70;1.00
516;DHT22;244;48.508;9.052;2022-07-29T16:23:29;31.80;1.00
516;DHT22;244;48.508;9.052;2022-07-29T16:25:56;31.80;1.00
516;DHT22;244;48.508;9.052;2022-07-29T16:28:23;31.70;1.00
516;DHT22;244;48.508;9.052;2022-07-29T16:30:50;31.60;1.00
516;DHT22;244;48.508;9.052;2022-07-29T16:33:18;31.50;1.00
516;DHT22;244;48.508;9.052;2022-07-29T16:35:45;31.40;1.00
516;DHT22;244;48.508;9.052;2022-07-29T16:38:12;31.20;1.00
516;DHT22;244;48.508;9.052;2022-07-29T16:40:39;31.10;1.00
516;DHT22;244;48.508;9.052;2022-07-29T16:43:05;30.90;1.00
516;DHT22;244;48.508;9.052;2022-07-29T16:45:32;30.80;1.00
516;DHT22;244;48.508;9.052;2022-07-29T16:48:00;30.60;1.00
516;DHT22;244;48.508;9.052;2022-07-29T16:50:29;30.50;1.00
516;DHT22;244;48.508;9.052;2022-07-29T16:52:56;30.30;1.00
516;DHT22;244;48.508;9.052;2022-07-29T16:55:23;30.10;1.00
516;DHT22;244;48.508;9.052;2022-07-29T16:57:50;30.00;1.00